Time;durP1;ratioP1;P1;durP2;ratioP2;P2;SDS_P1;SDS_P2;PMS_P1;PMS_P2;Temp;Humidity;BMP_temperature;BMP_pressure;BME280_temperature;BME280_humidity;BME280_pressure;Samples;Min_cycle;Max_cycle;Signal;HPM_P1;HPM_P2
2022/05/22 00:02:02;;;;;;;9.25;5.30;;;14.00;1.00;;;;;;4990154;28;20805;-59
2022/05/22 00:04:28;;;;;;;9.70;4.82;;;14.00;1.00;;;;;;4991392;28;20394;-59
2022/05/22 00:06:54;;;;;;;11.13;5.15;;;14.00;1.00;;;;;;4990507;28;20469;-59
2022/05/22 00:09:20;;;;;;;10.43;5.97;;;14.10;99.90;;;;;;4990422;28;20545;-59
2022/05/22 00:11:46;;;;;;;10.38;5.45;;;14.10;99.90;;;;;;4990744;28;20477;-54
2022/05/22 00:14:12;;;;;;;8.98;4.90;;;14.20;99.90;;;;;;4990692;28;20390;-59
2022/05/22 00:16:46;;;;;;;10.68;5.68;;;13.90;99.90;;;;;;4982211;28;20398;-58
2022/05/22 00:19:23;;;;;;;8.60;5.50;;;13.90;1.00;;;;;;4990284;28;20428;-59
2022/05/22 00:21:50;;;;;;;9.73;5.43;;;13.90;99.90;;;;;;4989611;28;20406;-54
2022/05/22 00:24:18;;;;;;;9.77;5.38;;;13.70;1.00;;;;;;4990760;28;20390;-59
2022/05/22 00:26:43;;;;;;;9.30;5.30;;;13.60;1.00;;;;;;4990866;28;20759;-59
2022/05/22 00:29:09;;;;;;;9.50;5.20;;;13.60;61.30;;;;;;4989728;28;20395;-59
2022/05/22 00:31:35;;;;;;;9.30;5.70;;;13.60;39.70;;;;;;4990462;28;20882;-59
2022/05/22 00:34:01;;;;;;;10.77;5.20;;;13.80;1.00;;;;;;4989853;28;20406;-59
2022/05/22 00:36:26;;;;;;;10.10;5.20;;;13.80;1.00;;;;;;4990310;28;20402;-59
2022/05/22 00:38:52;;;;;;;9.48;5.25;;;13.80;99.90;;;;;;4989407;28;20421;-58
2022/05/22 00:41:19;;;;;;;8.38;5.40;;;13.60;1.00;;;;;;4989816;28;20446;-59
2022/05/22 00:43:48;;;;;;;9.48;5.85;;;13.50;1.00;;;;;;4990276;28;20403;-57
2022/05/22 00:46:16;;;;;;;10.70;6.05;;;13.40;99.90;;;;;;4990209;28;20878;-58
2022/05/22 00:48:45;;;;;;;11.43;5.60;;;13.40;99.90;;;;;;4990469;28;20434;-59
2022/05/22 00:51:16;;;;;;;11.65;5.53;;;13.30;99.90;;;;;;4989436;28;20402;-59
2022/05/22 00:53:49;;;;;;;9.60;5.70;;;13.10;99.90;;;;;;4983266;28;20473;-59
2022/05/22 00:56:20;;;;;;;9.00;5.00;;;13.10;99.90;;;;;;4990051;28;20393;-59
2022/05/22 00:58:47;;;;;;;10.70;5.28;;;13.20;99.90;;;;;;4989888;28;20934;-54
2022/05/22 01:01:13;;;;;;;8.88;5.03;;;13.00;99.90;;;;;;4989725;28;20387;-59
2022/05/22 01:03:39;;;;;;;9.80;4.73;;;13.30;99.90;;;;;;4989530;28;20461;-59
2022/05/22 01:06:12;;;;;;;8.88;4.93;;;13.30;99.90;;;;;;4989050;28;20501;-59
2022/05/22 01:08:39;;;;;;;8.88;5.18;;;13.30;99.90;;;;;;4990460;28;20508;-59
2022/05/22 01:11:13;;;;;;;9.48;5.20;;;13.40;99.90;;;;;;4988885;28;20950;-58
2022/05/22 01:14:16;;;;;;;10.70;5.00;;;13.30;99.90;;;;;;4989655;28;20387;-57
2022/05/22 01:16:42;;;;;;;12.13;5.50;;;13.30;99.90;;;;;;4951109;28;20403;-59
2022/05/22 01:19:15;;;;;;;9.47;4.90;;;13.20;99.90;;;;;;4989254;28;20408;-59
2022/05/22 01:21:53;;;;;;;8.30;5.20;;;13.10;99.90;;;;;;4990032;28;20429;-59
2022/05/22 01:24:19;;;;;;;12.00;5.30;;;13.10;99.90;;;;;;4979202;28;20390;-59
2022/05/22 01:26:45;;;;;;;10.03;5.60;;;13.00;99.90;;;;;;4989566;28;20390;-59
2022/05/22 01:29:11;;;;;;;8.60;4.80;;;13.10;99.90;;;;;;4988727;28;20395;-59
2022/05/22 01:31:36;;;;;;;8.52;4.85;;;13.10;99.90;;;;;;4989945;28;20390;-58
2022/05/22 01:34:02;;;;;;;10.70;5.60;;;12.90;1.00;;;;;;4988860;28;20390;-59
2022/05/22 01:36:28;;;;;;;9.98;5.40;;;12.90;1.00;;;;;;4989752;28;20469;-59
2022/05/22 01:38:54;;;;;;;10.40;5.30;;;12.80;1.00;;;;;;4989088;28;20411;-59
2022/05/22 01:41:19;;;;;;;9.52;5.75;;;12.80;1.00;;;;;;4989428;28;20398;-59
2022/05/22 01:43:45;;;;;;;10.50;5.70;;;12.70;1.00;;;;;;4989357;28;20910;-58
2022/05/22 01:46:10;;;;;;;11.50;5.70;;;12.70;1.00;;;;;;4988834;28;20897;-58
2022/05/22 01:48:36;;;;;;;10.55;6.20;;;12.80;1.00;;;;;;4989280;28;20390;-59
2022/05/22 01:51:02;;;;;;;11.50;5.90;;;12.80;1.00;;;;;;4988989;28;20405;-59
2022/05/22 01:53:28;;;;;;;10.77;6.10;;;12.70;1.00;;;;;;4989190;28;20860;-57
2022/05/22 01:55:53;;;;;;;10.50;6.37;;;12.70;1.00;;;;;;4988544;28;20418;-57
2022/05/22 01:58:19;;;;;;;10.50;6.00;;;12.70;1.00;;;;;;4978357;28;20419;-58
2022/05/22 02:00:45;;;;;;;12.00;6.07;;;12.70;1.00;;;;;;4989531;28;20457;-59
2022/05/22 02:03:11;;;;;;;13.15;6.50;;;12.60;1.00;;;;;;4988579;28;20448;-56
2022/05/22 02:05:37;;;;;;;11.30;6.90;;;12.50;1.00;;;;;;4989399;28;20394;-57
2022/05/22 02:08:23;;;;;;;9.85;6.10;;;12.40;1.00;;;;;;4988541;28;20401;-59
2022/05/22 02:10:59;;;;;;;10.40;6.55;;;12.40;1.00;;;;;;4982223;28;20450;-52
2022/05/22 02:13:31;;;;;;;11.30;6.78;;;12.30;1.00;;;;;;4988556;28;20386;-56
2022/05/22 02:15:57;;;;;;;11.00;6.57;;;12.40;1.00;;;;;;4985541;28;20729;-56
2022/05/22 02:18:23;;;;;;;14.93;7.22;;;12.40;1.00;;;;;;4989351;28;20501;-55
2022/05/22 02:20:50;;;;;;;10.40;6.50;;;12.30;1.00;;;;;;4988846;28;20902;-52
2022/05/22 02:23:18;;;;;;;11.60;6.35;;;12.20;1.00;;;;;;4988866;28;20383;-56
2022/05/22 02:25:47;;;;;;;14.20;7.18;;;12.20;1.00;;;;;;4988041;28;20398;-58
2022/05/22 02:28:14;;;;;;;10.13;6.15;;;12.20;1.00;;;;;;4988640;28;20744;-62
2022/05/22 02:30:42;;;;;;;11.50;7.27;;;12.30;1.00;;;;;;4989083;28;20390;-57
2022/05/22 02:33:07;;;;;;;11.07;6.88;;;12.30;1.00;;;;;;4988403;28;20407;-58
2022/05/22 02:35:33;;;;;;;11.57;6.90;;;12.40;1.00;;;;;;4988979;28;20496;-56
2022/05/22 02:37:59;;;;;;;9.35;6.22;;;12.40;1.00;;;;;;4988027;28;20402;-57
2022/05/22 02:40:27;;;;;;;11.93;6.68;;;12.40;1.00;;;;;;4990591;28;20772;-54
2022/05/22 02:42:53;;;;;;;10.50;6.40;;;12.40;1.00;;;;;;4991806;28;20777;-55
2022/05/22 02:45:22;;;;;;;10.03;6.90;;;12.40;1.00;;;;;;4992573;28;20481;-56
2022/05/22 02:47:48;;;;;;;10.00;6.20;;;12.40;1.00;;;;;;4992724;28;20387;-56
2022/05/22 02:50:16;;;;;;;10.60;6.00;;;12.40;1.00;;;;;;4991800;28;20386;-56
2022/05/22 02:52:41;;;;;;;11.75;6.20;;;12.40;1.00;;;;;;4992449;28;20394;-56
2022/05/22 02:55:08;;;;;;;9.97;6.20;;;12.30;1.00;;;;;;4991550;28;20394;-56
2022/05/22 02:57:35;;;;;;;10.80;6.50;;;12.20;1.00;;;;;;4992070;28;20386;-56
2022/05/22 03:00:01;;;;;;;13.30;6.90;;;12.20;1.00;;;;;;4991417;28;20484;-56
2022/05/22 03:02:26;;;;;;;10.05;6.03;;;12.10;1.00;;;;;;4992259;28;20531;-56
2022/05/22 03:04:52;;;;;;;9.82;6.63;;;12.20;1.00;;;;;;4991732;28;20868;-52
2022/05/22 03:07:19;;;;;;;11.30;7.20;;;12.10;1.00;;;;;;4992176;28;20390;-56
2022/05/22 03:09:47;;;;;;;11.60;7.38;;;12.20;1.00;;;;;;4990826;28;20461;-56
2022/05/22 03:12:18;;;;;;;12.93;7.30;;;12.20;1.00;;;;;;4991419;28;20383;-56
2022/05/22 03:14:46;;;;;;;12.25;7.10;;;12.20;1.00;;;;;;4992238;28;20389;-57
2022/05/22 03:17:12;;;;;;;10.88;7.00;;;12.10;1.00;;;;;;4991225;28;20451;-56
2022/05/22 03:19:37;;;;;;;11.55;7.00;;;12.10;1.00;;;;;;4991611;28;20423;-57
2022/05/22 03:22:04;;;;;;;13.43;7.63;;;12.10;1.00;;;;;;4991069;28;20395;-57
2022/05/22 03:24:30;;;;;;;11.43;7.20;;;12.00;1.00;;;;;;4992096;28;20387;-56
2022/05/22 03:26:55;;;;;;;13.70;7.70;;;12.00;1.00;;;;;;4991180;28;20403;-56
2022/05/22 03:29:21;;;;;;;12.17;7.70;;;12.00;1.00;;;;;;4990217;28;20426;-57
2022/05/22 03:31:47;;;;;;;12.80;7.38;;;11.80;1.00;;;;;;4991649;28;20374;-59
2022/05/22 03:34:13;;;;;;;13.70;8.00;;;11.80;16.40;;;;;;4990907;28;20911;-58
2022/05/22 03:36:41;;;;;;;11.20;7.40;;;11.80;23.80;;;;;;4991565;28;20390;-59
2022/05/22 03:39:07;;;;;;;11.85;7.05;;;11.80;15.70;;;;;;4990770;28;20750;-58
2022/05/22 03:41:37;;;;;;;12.02;8.00;;;11.80;26.80;;;;;;4991584;28;20386;-58
2022/05/22 03:44:03;;;;;;;12.30;8.70;;;11.70;32.50;;;;;;4990537;28;20999;-58
2022/05/22 03:46:29;;;;;;;13.82;8.70;;;11.60;55.40;;;;;;4991465;28;20394;-59
2022/05/22 03:48:54;;;;;;;12.23;8.90;;;11.60;83.70;;;;;;4990706;28;20718;-54
2022/05/22 03:51:20;;;;;;;14.43;8.15;;;11.60;97.40;;;;;;4973429;28;20437;-58
2022/05/22 03:53:46;;;;;;;14.90;8.77;;;11.60;99.30;;;;;;4991291;28;20870;-58
2022/05/22 03:56:13;;;;;;;12.52;8.10;;;11.60;99.90;;;;;;4990435;28;21066;-58
2022/05/22 03:58:40;;;;;;;13.07;7.70;;;11.60;99.90;;;;;;4990879;28;20880;-58
2022/05/22 04:01:07;;;;;;;14.20;8.27;;;11.80;92.40;;;;;;4990393;28;20449;-56
2022/05/22 04:03:36;;;;;;;11.55;7.97;;;11.90;91.40;;;;;;4991238;28;20398;-56
2022/05/22 04:06:03;;;;;;;11.93;7.57;;;11.90;77.10;;;;;;4990086;28;20387;-58
2022/05/22 04:08:29;;;;;;;11.40;6.80;;;12.10;47.60;;;;;;4990897;28;20439;-57
2022/05/22 04:10:55;;;;;;;13.68;6.88;;;12.20;39.50;;;;;;4990387;28;20418;-56
2022/05/22 04:13:22;;;;;;;10.45;6.80;;;12.30;5.20;;;;;;4990443;28;20860;-57
2022/05/22 04:15:48;;;;;;;10.73;6.82;;;12.30;1.00;;;;;;4990733;28;20399;-58
2022/05/22 04:18:14;;;;;;;11.02;6.90;;;12.30;1.00;;;;;;4990081;28;20421;-57
2022/05/22 04:20:40;;;;;;;11.20;7.20;;;12.40;1.00;;;;;;4990647;28;20386;-57
2022/05/22 04:25:56;;;;;;;10.80;6.93;;;12.50;1.00;;;;;;4990214;28;20453;-54
2022/05/22 04:28:23;;;;;;;11.65;7.78;;;12.60;1.00;;;;;;4980093;28;20397;-56
2022/05/22 04:30:49;;;;;;;12.20;7.05;;;12.70;1.00;;;;;;4990602;28;20417;-58
2022/05/22 04:33:15;;;;;;;11.98;7.88;;;12.80;1.00;;;;;;4989801;28;20513;-59
2022/05/22 04:35:43;;;;;;;11.32;7.65;;;12.90;1.00;;;;;;4990651;28;20386;-59
2022/05/22 04:38:09;;;;;;;12.52;7.78;;;12.90;1.00;;;;;;4989666;28;20440;-58
2022/05/22 04:40:35;;;;;;;13.13;7.50;;;13.10;1.00;;;;;;4990414;28;20410;-59
2022/05/22 04:43:01;;;;;;;12.27;7.67;;;13.20;1.00;;;;;;4989486;28;20478;-58
2022/05/22 04:45:26;;;;;;;12.00;7.78;;;13.40;1.00;;;;;;4990621;28;20390;-59
2022/05/22 04:47:52;;;;;;;10.83;7.40;;;13.60;1.00;;;;;;4989874;28;20382;-54
2022/05/22 04:50:18;;;;;;;11.10;6.90;;;13.50;1.00;;;;;;4989989;28;20710;-58
2022/05/22 04:52:44;;;;;;;12.27;7.00;;;13.90;1.00;;;;;;4990459;28;20418;-59
2022/05/22 04:55:10;;;;;;;12.45;6.80;;;14.10;1.00;;;;;;4988476;28;20446;-59
2022/05/22 04:57:36;;;;;;;10.73;6.40;;;14.70;1.00;;;;;;4990076;28;20390;-57
2022/05/22 05:00:04;;;;;;;10.70;5.95;;;15.50;99.90;;;;;;4989306;28;20419;-59
2022/05/22 05:02:30;;;;;;;9.45;5.97;;;16.10;99.90;;;;;;4989501;28;20461;-59
2022/05/22 05:04:57;;;;;;;9.60;5.68;;;16.50;99.90;;;;;;4989794;28;20420;-55
2022/05/22 05:07:23;;;;;;;11.77;5.57;;;17.40;99.90;;;;;;4989713;28;20387;-57
2022/05/22 05:09:49;;;;;;;10.00;6.00;;;18.50;1.00;;;;;;4989472;28;20429;-59
2022/05/22 05:12:15;;;;;;;11.50;5.82;;;19.50;99.90;;;;;;4989000;28;20664;-58
2022/05/22 05:14:41;;;;;;;9.48;5.70;;;20.50;99.90;;;;;;4990329;28;20856;-59
2022/05/22 05:17:11;;;;;;;8.93;6.10;;;20.70;85.90;;;;;;4989125;28;20382;-59
2022/05/22 05:19:37;;;;;;;8.05;5.30;;;21.00;46.40;;;;;;4972208;28;20772;-59
2022/05/22 05:22:03;;;;;;;9.50;5.60;;;21.60;16.90;;;;;;4989118;28;20393;-60
2022/05/22 05:24:28;;;;;;;8.88;5.00;;;22.20;6.00;;;;;;4989807;28;20395;-60
2022/05/22 05:26:55;;;;;;;9.57;5.45;;;23.20;1.00;;;;;;4988866;28;20390;-55
2022/05/22 05:29:21;;;;;;;9.38;5.63;;;23.60;1.00;;;;;;4989566;28;20490;-59
2022/05/22 05:31:47;;;;;;;9.40;5.57;;;23.90;1.00;;;;;;4989480;28;20390;-59
2022/05/22 05:34:13;;;;;;;9.35;5.18;;;24.10;1.00;;;;;;4989077;28;20383;-60
2022/05/22 05:36:39;;;;;;;8.77;5.80;;;24.00;1.00;;;;;;4989574;28;20415;-60
2022/05/22 05:39:06;;;;;;;9.25;5.03;;;24.00;1.00;;;;;;4988781;28;20418;-59
2022/05/22 05:41:32;;;;;;;9.48;5.20;;;23.70;1.00;;;;;;4971836;28;20457;-57
2022/05/22 05:43:57;;;;;;;9.40;5.80;;;24.30;1.00;;;;;;4988836;28;20462;-57
2022/05/22 05:46:23;;;;;;;8.60;5.10;;;24.90;1.00;;;;;;4989403;28;20784;-56
2022/05/22 05:48:49;;;;;;;11.07;6.00;;;25.30;1.00;;;;;;4989704;28;20426;-60
2022/05/22 05:51:14;;;;;;;9.10;6.37;;;25.90;1.00;;;;;;4989106;28;20421;-61
2022/05/22 05:53:40;;;;;;;10.33;5.57;;;25.90;1.00;;;;;;4989509;28;20483;-60
2022/05/22 05:56:07;;;;;;;8.50;5.60;;;25.10;1.00;;;;;;4989523;28;20430;-60
2022/05/22 05:58:33;;;;;;;8.63;5.93;;;25.30;1.00;;;;;;4989690;28;20437;-62
2022/05/22 06:00:59;;;;;;;8.43;6.20;;;25.50;1.00;;;;;;4987635;28;20414;-59
2022/05/22 06:03:24;;;;;;;9.70;6.10;;;25.70;1.00;;;;;;4986647;28;20399;-57
2022/05/22 06:05:50;;;;;;;8.10;6.37;;;25.80;1.00;;;;;;4984244;28;20402;-60
2022/05/22 06:08:16;;;;;;;8.53;5.93;;;25.50;1.00;;;;;;4987711;28;20513;-60
2022/05/22 06:10:42;;;;;;;8.30;5.37;;;24.70;1.00;;;;;;4987358;28;20415;-61
2022/05/22 06:13:08;;;;;;;8.73;5.97;;;24.70;1.00;;;;;;4984999;28;20402;-62
2022/05/22 06:15:34;;;;;;;8.25;6.10;;;24.70;1.00;;;;;;4992517;28;20403;-62
2022/05/22 06:18:00;;;;;;;8.40;6.03;;;25.00;1.00;;;;;;4992336;28;20391;-62
2022/05/22 06:20:26;;;;;;;8.52;5.80;;;24.90;1.00;;;;;;4992201;28;20460;-62
2022/05/22 06:22:51;;;;;;;9.43;6.10;;;25.00;1.00;;;;;;4988713;28;20446;-62
2022/05/22 06:25:17;;;;;;;9.20;6.30;;;26.00;1.00;;;;;;4990318;28;20829;-61
2022/05/22 06:27:43;;;;;;;10.07;6.50;;;26.90;1.00;;;;;;4990895;28;20398;-63
2022/05/22 06:30:14;;;;;;;9.20;6.53;;;27.50;1.00;;;;;;4986090;28;20926;-64
2022/05/22 06:32:41;;;;;;;10.43;5.93;;;27.80;1.00;;;;;;4969290;28;20406;-62
2022/05/22 06:35:09;;;;;;;8.93;6.78;;;27.60;1.00;;;;;;4989956;28;20395;-62
2022/05/22 06:37:36;;;;;;;9.18;5.93;;;27.60;1.00;;;;;;4989432;28;20429;-63
2022/05/22 06:40:02;;;;;;;8.02;6.25;;;27.30;1.00;;;;;;4985915;28;20426;-63
2022/05/22 06:42:31;;;;;;;9.43;6.18;;;28.10;52.20;;;;;;4990455;28;20414;-63
2022/05/22 06:45:01;;;;;;;9.05;6.30;;;28.30;1.00;;;;;;4989432;28;20406;-60
2022/05/22 06:47:28;;;;;;;9.67;6.30;;;;;;;;;;4984524;28;20533;-63
2022/05/22 06:49:54;;;;;;;9.02;6.50;;;;;;;;;;4989912;28;20779;-59
2022/05/22 06:52:21;;;;;;;9.10;5.70;;;29.00;99.90;;;;;;4986180;28;20752;-58
2022/05/22 06:54:47;;;;;;;9.30;6.10;;;29.30;99.90;;;;;;4983886;28;20493;-62
2022/05/22 06:57:16;;;;;;;8.70;6.25;;;29.50;99.90;;;;;;4987797;28;20606;-63
2022/05/22 06:59:43;;;;;;;8.43;6.13;;;29.00;99.90;;;;;;4983853;28;20533;-60
2022/05/22 07:02:09;;;;;;;8.80;6.00;;;28.90;99.90;;;;;;4983808;28;20456;-63
2022/05/22 07:04:34;;;;;;;9.52;5.75;;;29.50;99.90;;;;;;4989236;28;20911;-65
2022/05/22 07:07:00;;;;;;;9.20;6.87;;;30.10;99.90;;;;;;4986480;28;20429;-63
2022/05/22 07:09:26;;;;;;;8.80;6.17;;;30.50;99.90;;;;;;4988200;28;20914;-64
2022/05/22 07:11:54;;;;;;;8.40;4.80;;;31.00;99.90;;;;;;4989282;28;20453;-63
2022/05/22 07:14:21;;;;;;;9.82;5.07;;;30.50;99.90;;;;;;4987013;28;20478;-63
2022/05/22 07:16:46;;;;;;;7.28;4.40;;;30.10;99.90;;;;;;4988739;28;20406;-64
2022/05/22 07:19:13;;;;;;;9.00;5.60;;;30.80;99.90;;;;;;4989528;28;20737;-63
2022/05/22 07:21:39;;;;;;;10.20;5.85;;;31.20;99.90;;;;;;4987325;28;20412;-63
2022/05/22 07:24:05;;;;;;;8.10;6.53;;;30.70;99.90;;;;;;4969260;28;20394;-63
2022/05/22 07:26:31;;;;;;;8.40;3.53;;;31.10;99.90;;;;;;4985970;28;20421;-62
2022/05/22 07:29:01;;;;;;;7.45;3.55;;;30.40;99.90;;;;;;4987108;28;20896;-58
2022/05/22 07:31:28;;;;;;;7.13;3.20;;;29.90;99.90;;;;;;4988182;28;20959;-65
2022/05/22 07:33:54;;;;;;;7.43;3.50;;;29.70;99.90;;;;;;4988414;28;20398;-59
2022/05/22 07:36:21;;;;;;;7.90;3.85;;;30.20;99.90;;;;;;4986673;28;20414;-63
2022/05/22 07:38:47;;;;;;;7.33;3.30;;;31.00;99.90;;;;;;4987281;28;20456;-64
2022/05/22 07:41:14;;;;;;;7.90;3.05;;;31.90;99.90;;;;;;4985567;28;20414;-64
2022/05/22 07:43:40;;;;;;;7.40;2.90;;;32.10;99.90;;;;;;4987493;28;20395;-63
2022/05/22 07:46:07;;;;;;;7.13;3.33;;;31.20;99.90;;;;;;4987152;28;20409;-61
2022/05/22 07:48:33;;;;;;;6.90;4.05;;;31.40;99.90;;;;;;4988589;28;20887;-64
2022/05/22 07:51:00;;;;;;;7.50;4.95;;;31.20;99.90;;;;;;4988180;28;20417;-64
2022/05/22 07:53:27;;;;;;;8.50;4.78;;;31.20;99.90;;;;;;4977695;28;20399;-65
2022/05/22 07:55:53;;;;;;;6.95;3.88;;;31.40;99.90;;;;;;4986578;28;20496;-60
2022/05/22 07:58:20;;;;;;;9.43;3.08;;;32.40;99.90;;;;;;4984499;28;20493;-64
2022/05/22 08:00:47;;;;;;;7.78;3.35;;;32.00;99.90;;;;;;4985635;28;20930;-62
2022/05/22 08:03:15;;;;;;;9.10;3.50;;;30.80;99.90;;;;;;4986048;28;20939;-64
2022/05/22 08:05:42;;;;;;;7.00;3.10;;;30.80;99.90;;;;;;4986372;28;20411;-64
2022/05/22 08:08:08;;;;;;;9.27;3.03;;;30.40;99.90;;;;;;4987515;28;20414;-62
2022/05/22 08:10:36;;;;;;;9.00;3.10;;;30.80;99.90;;;;;;4990045;28;20411;-64
2022/05/22 08:13:03;;;;;;;8.73;4.40;;;31.10;99.90;;;;;;4988911;28;20411;-65
2022/05/22 08:15:30;;;;;;;8.45;5.07;;;31.20;99.90;;;;;;4977337;28;20408;-62
2022/05/22 08:17:57;;;;;;;8.40;4.80;;;30.30;99.90;;;;;;4985486;28;20910;-58
2022/05/22 08:20:23;;;;;;;7.88;5.78;;;30.40;99.90;;;;;;4987738;28;20860;-64
2022/05/22 08:23:12;;;;;;;6.82;4.70;;;31.00;99.90;;;;;;4987774;28;20412;-64
2022/05/22 08:25:45;;;;;;;7.07;3.08;;;32.20;99.90;;;;;;4984251;28;20461;-64
2022/05/22 08:28:10;;;;;;;6.65;2.70;;;33.20;99.90;;;;;;4984278;28;20418;-65
2022/05/22 08:30:37;;;;;;;8.47;4.80;;;33.60;99.90;;;;;;4986480;28;20437;-65
2022/05/22 08:33:03;;;;;;;7.90;3.88;;;32.80;99.90;;;;;;4985820;28;20410;-63
2022/05/22 08:35:33;;;;;;;7.80;4.20;;;32.50;99.90;;;;;;4987946;28;20768;-65
2022/05/22 08:37:59;;;;;;;7.45;4.75;;;32.70;99.90;;;;;;4984448;28;20504;-56
2022/05/22 08:40:28;;;;;;;7.60;2.88;;;33.70;99.90;;;;;;4985552;28;20872;-61
2022/05/22 08:43:02;;;;;;;5.75;2.10;;;34.70;99.90;;;;;;4986926;28;20886;-57
2022/05/22 08:45:40;;;;;;;6.60;2.60;;;35.10;99.90;;;;;;4987207;28;20776;-60
2022/05/22 08:48:39;;;;;;;7.77;2.40;;;35.70;99.90;;;;;;4983069;28;20492;-59
2022/05/22 08:51:10;;;;;;;7.72;4.00;;;35.00;99.90;;;;;;4985963;28;20483;-61
2022/05/22 08:53:43;;;;;;;10.07;7.40;;;35.00;99.90;;;;;;4983686;28;20410;-61
2022/05/22 08:59:10;;;;;;;8.05;5.88;;;35.20;99.90;;;;;;4986014;28;20421;-56
2022/05/22 09:01:59;;;;;;;6.70;4.60;;;34.70;99.90;;;;;;4985297;28;20420;-62
2022/05/22 09:04:45;;;;;;;6.40;2.05;;;34.30;99.90;;;;;;4984767;28;20417;-62
2022/05/22 09:07:23;;;;;;;7.35;2.10;;;34.60;99.90;;;;;;4985454;28;20863;-61
2022/05/22 09:10:18;;;;;;;5.78;1.70;;;34.40;99.90;;;;;;4986293;28;21246;-59
2022/05/22 09:13:11;;;;;;;5.32;1.50;;;34.70;99.90;;;;;;4977703;28;20422;-62
2022/05/22 09:15:46;;;;;;;6.30;4.20;;;35.00;99.90;;;;;;4984328;28;20575;-62
2022/05/22 09:18:31;;;;;;;7.00;4.40;;;34.20;99.90;;;;;;4983635;28;20485;-61
2022/05/22 09:21:15;;;;;;;6.50;4.40;;;32.70;99.90;;;;;;4987379;28;20394;-55
2022/05/22 09:24:02;;;;;;;6.20;3.95;;;31.60;99.90;;;;;;4986136;28;20424;-58
2022/05/22 09:26:54;;;;;;;7.97;5.07;;;32.10;99.90;;;;;;4971193;28;20455;-61
2022/05/22 09:29:44;;;;;;;6.82;4.10;;;32.90;99.90;;;;;;4983725;28;20445;-61
2022/05/22 09:32:32;;;;;;;9.48;4.10;;;32.20;99.90;;;;;;4988988;28;20777;-61
2022/05/22 09:35:19;;;;;;;7.40;4.90;;;31.80;99.90;;;;;;4985289;28;20784;-56
2022/05/22 09:38:15;;;;;;;7.25;4.88;;;31.80;99.90;;;;;;4988656;28;20883;-58
2022/05/22 09:40:44;;;;;;;8.25;4.32;;;33.20;99.90;;;;;;4970080;28;20814;-58
2022/05/22 09:43:22;;;;;;;6.30;3.67;;;33.40;99.90;;;;;;4989091;28;20871;-62
2022/05/22 09:45:56;;;;;;;8.02;4.60;;;33.20;99.90;;;;;;4976885;28;20418;-62
2022/05/22 09:48:44;;;;;;;6.97;4.32;;;33.30;99.90;;;;;;4998681;28;20407;-62
2022/05/22 09:51:35;;;;;;;6.28;3.67;;;33.30;99.90;;;;;;4980981;28;20436;-62
2022/05/22 09:54:25;;;;;;;7.47;3.90;;;33.20;99.90;;;;;;4990432;28;20767;-62
2022/05/22 09:57:00;;;;;;;6.20;3.33;;;33.40;99.90;;;;;;4994493;28;20394;-61
2022/05/22 09:59:28;;;;;;;8.00;5.30;;;33.70;99.90;;;;;;4988093;28;20472;-61
2022/05/22 10:01:59;;;;;;;6.40;3.80;;;34.40;99.90;;;;;;4992000;28;20751;-55
2022/05/22 10:04:46;;;;;;;8.02;4.30;;;32.60;99.90;;;;;;4990214;28;20414;-61
2022/05/22 10:07:40;;;;;;;6.93;4.10;;;30.90;99.90;;;;;;4987236;28;20969;-61
2022/05/22 10:10:21;;;;;;;6.88;4.22;;;30.90;99.90;;;;;;4992201;28;20457;-61
2022/05/22 10:12:55;;;;;;;6.80;4.10;;;31.30;99.90;;;;;;4991570;28;20592;-61
2022/05/22 10:15:50;;;;;;;6.97;4.05;;;32.20;99.90;;;;;;4972572;28;20398;-61
2022/05/22 10:19:10;;;;;;;8.05;4.10;;;32.10;99.90;;;;;;4989388;28;21039;-61
2022/05/22 10:22:00;;;;;;;6.50;4.00;;;32.60;99.90;;;;;;4902433;29;20494;-61
2022/05/22 10:25:03;;;;;;;8.07;3.90;;;32.30;99.90;;;;;;4990284;28;20425;-61
2022/05/22 10:27:54;;;;;;;6.20;3.60;;;32.50;99.90;;;;;;4989997;28;20876;-61
2022/05/22 10:30:30;;;;;;;6.70;4.20;;;32.70;99.90;;;;;;4991449;28;20864;-61
2022/05/22 10:33:10;;;;;;;7.82;4.22;;;31.90;99.90;;;;;;4992469;28;20472;-56
2022/05/22 10:35:50;;;;;;;6.80;4.53;;;31.40;99.90;;;;;;4992223;28;20856;-60
2022/05/22 10:38:20;;;;;;;6.90;3.97;;;30.70;99.90;;;;;;4991390;28;20856;-60
2022/05/22 10:43:40;;;;;;;7.68;4.90;;;30.00;99.90;;;;;;4991197;28;20525;-60
2022/05/22 10:46:05;;;;;;;8.95;4.75;;;29.60;99.90;;;;;;4989764;28;20505;-61
2022/05/22 10:48:33;;;;;;;6.75;4.43;;;29.90;99.90;;;;;;4991645;28;20837;-61
2022/05/22 10:51:09;;;;;;;7.10;4.30;;;29.50;99.90;;;;;;4988754;28;20421;-60
2022/05/22 10:53:55;;;;;;;7.68;4.45;;;29.50;99.90;;;;;;4988708;28;20406;-60
2022/05/22 10:56:30;;;;;;;10.70;5.70;;;29.20;99.90;;;;;;4989387;28;20429;-61
2022/05/22 10:59:06;;;;;;;6.85;4.60;;;28.30;99.90;;;;;;4989478;28;20481;-55
2022/05/22 11:01:39;;;;;;;7.00;4.27;;;27.90;99.90;;;;;;4989534;28;20475;-60
2022/05/22 11:04:13;;;;;;;7.00;4.20;;;28.40;99.90;;;;;;4990224;28;20404;-60
2022/05/22 11:06:58;;;;;;;7.05;4.60;;;28.60;99.90;;;;;;4990678;28;20402;-60
2022/05/22 11:09:29;;;;;;;6.22;4.50;;;28.50;99.90;;;;;;4990600;28;20817;-61
2022/05/22 11:12:11;;;;;;;6.75;4.93;;;28.50;99.90;;;;;;4987623;28;20819;-56
2022/05/22 11:14:37;;;;;;;7.05;4.50;;;28.20;99.90;;;;;;4989395;28;20410;-60
2022/05/22 11:17:22;;;;;;;7.97;4.38;;;28.10;99.90;;;;;;4987170;28;20398;-61
2022/05/22 11:19:53;;;;;;;8.25;4.70;;;28.00;99.90;;;;;;4989156;28;20414;-59
2022/05/22 11:22:42;;;;;;;6.60;4.70;;;28.00;99.90;;;;;;4988132;28;20394;-60
2022/05/22 11:25:29;;;;;;;6.53;4.35;;;27.90;99.90;;;;;;4987427;28;20868;-60
2022/05/22 11:27:57;;;;;;;7.20;5.30;;;28.00;99.90;;;;;;4990595;28;20757;-61
2022/05/22 11:30:42;;;;;;;8.02;4.00;;;27.90;99.90;;;;;;4989847;28;20449;-61
2022/05/22 11:33:46;;;;;;;6.32;4.35;;;27.70;99.90;;;;;;4989301;28;20407;-58
2022/05/22 11:36:29;;;;;;;7.70;4.97;;;27.60;99.90;;;;;;4988924;28;20408;-60
2022/05/22 11:39:18;;;;;;;6.20;4.38;;;27.70;99.90;;;;;;4987894;28;20907;-57
2022/05/22 11:42:00;;;;;;;6.30;4.60;;;27.80;99.90;;;;;;4979615;28;20418;-60
2022/05/22 11:44:26;;;;;;;8.05;4.43;;;27.70;99.90;;;;;;4986504;28;20413;-60
2022/05/22 11:47:16;;;;;;;7.33;4.97;;;27.80;99.90;;;;;;4987789;28;20416;-61
2022/05/22 11:50:08;;;;;;;7.28;4.57;;;27.80;99.90;;;;;;4989167;28;20426;-61
2022/05/22 11:55:26;;;;;;;6.60;4.28;;;28.20;99.90;;;;;;4987901;28;20413;-61
2022/05/22 11:58:18;;;;;;;8.27;4.93;;;28.30;99.90;;;;;;4989031;28;20394;-61
2022/05/22 12:00:50;;;;;;;7.53;4.23;;;28.20;99.90;;;;;;4985697;28;20419;-58
2022/05/22 12:04:10;;;;;;;7.00;4.50;;;28.20;99.90;;;;;;4987966;28;20418;-61
2022/05/22 12:06:45;;;;;;;5.90;3.70;;;28.10;99.90;;;;;;4910706;29;20409;-60
2022/05/22 12:09:38;;;;;;;7.78;4.25;;;27.80;99.90;;;;;;4987667;28;20429;-61
2022/05/22 12:12:26;;;;;;;6.50;4.10;;;27.60;99.90;;;;;;4973988;28;20421;-56
2022/05/22 12:15:23;;;;;;;6.90;4.53;;;27.90;99.90;;;;;;4974518;28;20408;-59
2022/05/22 12:18:00;;;;;;;6.90;4.80;;;28.10;99.90;;;;;;4982486;28;20402;-61
2022/05/22 12:20:38;;;;;;;6.20;4.03;;;28.30;99.90;;;;;;4970250;28;20424;-61
2022/05/22 12:23:15;;;;;;;6.20;4.15;;;28.30;99.90;;;;;;4970091;28;20952;-60
2022/05/22 12:25:52;;;;;;;6.65;4.30;;;28.20;99.90;;;;;;4970740;28;20423;-59
2022/05/22 12:28:43;;;;;;;7.95;5.05;;;27.70;99.90;;;;;;4969611;28;21042;-61
2022/05/22 12:31:25;;;;;;;6.32;3.90;;;27.80;99.90;;;;;;4965247;28;20547;-60
2022/05/22 12:33:52;;;;;;;7.72;4.20;;;28.10;99.90;;;;;;4969616;28;20398;-61
2022/05/22 12:36:29;;;;;;;6.37;4.00;;;28.40;99.90;;;;;;4971300;28;20556;-61
2022/05/22 12:39:11;;;;;;;6.88;4.50;;;29.00;99.90;;;;;;4969985;28;20436;-58
2022/05/22 12:41:58;;;;;;;7.25;3.70;;;29.10;99.90;;;;;;4969758;28;20392;-61
2022/05/22 12:44:25;;;;;;;5.90;4.10;;;28.60;99.90;;;;;;4969324;28;20393;-61
2022/05/22 12:46:52;;;;;;;8.10;4.50;;;28.50;99.90;;;;;;4974187;28;20552;-61
2022/05/22 12:49:24;;;;;;;7.15;3.67;;;28.40;99.90;;;;;;4974016;28;20393;-61
2022/05/22 12:52:06;;;;;;;6.55;4.65;;;28.40;99.90;;;;;;4971195;28;20483;-61
2022/05/22 12:54:35;;;;;;;8.00;4.50;;;28.40;99.90;;;;;;4970489;28;20404;-61
2022/05/22 12:57:19;;;;;;;7.57;4.35;;;28.00;99.90;;;;;;4973572;28;20384;-55
2022/05/22 13:00:10;;;;;;;7.47;4.80;;;27.70;99.90;;;;;;4969420;28;20412;-61
2022/05/22 13:02:41;;;;;;;6.47;4.50;;;27.50;99.90;;;;;;4971087;28;20396;-61
2022/05/22 13:05:30;;;;;;;9.70;4.80;;;27.50;99.90;;;;;;4968688;28;21799;-60
2022/05/22 13:07:57;;;;;;;6.70;4.65;;;27.70;99.90;;;;;;4974577;28;20408;-60
2022/05/22 13:10:44;;;;;;;6.90;4.40;;;27.80;99.90;;;;;;4981124;28;20419;-61
2022/05/22 13:13:14;;;;;;;6.13;4.60;;;27.70;99.90;;;;;;4988662;28;20710;-61
2022/05/22 13:16:05;;;;;;;6.07;3.75;;;27.60;99.90;;;;;;4989954;28;20879;-61
2022/05/22 13:18:32;;;;;;;8.67;4.87;;;27.60;99.90;;;;;;4990585;28;20438;-60
2022/05/22 13:21:00;;;;;;;7.25;5.00;;;27.80;99.90;;;;;;4989366;28;20399;-58
2022/05/22 13:23:36;;;;;;;6.90;4.40;;;28.10;99.90;;;;;;4989044;28;20856;-60